createdAt,value
2022-09-03T00:00:40.744Z,58.09
2022-09-03T00:01:40.857Z,57.98
2022-09-03T00:02:40.970Z,58.09
2022-09-03T00:03:41.052Z,57.78
2022-09-03T00:04:41.205Z,57.89
2022-09-03T00:05:41.365Z,58.01
2022-09-03T00:06:41.463Z,58.12
2022-09-03T00:07:41.605Z,58.22
2022-09-03T00:08:41.774Z,58.22
2022-09-03T00:09:41.856Z,58.42
2022-09-03T00:10:42.042Z,58.52
2022-09-03T00:11:42.134Z,58.52
2022-09-03T00:12:42.241Z,58.52
2022-09-03T00:13:42.374Z,58.72
2022-09-03T00:14:42.474Z,58.75
2022-09-03T00:15:42.702Z,58.85
2022-09-03T00:16:42.787Z,58.85
2022-09-03T00:17:42.854Z,59.05
2022-09-03T00:18:43.026Z,58.85
2022-09-03T00:19:43.104Z,58.75
2022-09-03T00:20:43.242Z,58.85
2022-09-03T00:21:43.423Z,58.85
2022-09-03T00:22:43.596Z,58.95
2022-09-03T00:23:43.776Z,58.85
2022-09-03T00:24:43.873Z,58.95
2022-09-03T00:25:44.033Z,58.95
2022-09-03T00:26:44.172Z,59.05
2022-09-03T00:27:44.332Z,59.15
2022-09-03T00:28:44.423Z,59.15
2022-09-03T00:29:44.604Z,59.05
2022-09-03T00:30:44.745Z,58.95
2022-09-03T00:31:44.945Z,59.05
2022-09-03T00:32:45.043Z,58.95
2022-09-03T00:33:45.213Z,59.05
2022-09-03T00:34:45.381Z,59.15
2022-09-03T00:35:45.534Z,59.25
2022-09-03T00:36:45.631Z,59.15
2022-09-03T00:37:45.792Z,59.38
2022-09-03T00:38:45.954Z,59.58
2022-09-03T00:39:46.143Z,59.38
2022-09-03T00:40:46.233Z,59.48
2022-09-03T00:41:46.372Z,59.38
2022-09-03T00:42:46.523Z,59.38
2022-09-03T00:43:46.696Z,59.38
2022-09-03T00:44:46.841Z,59.48
2022-09-03T00:45:46.940Z,59.38
2022-09-03T00:46:47.259Z,59.58
2022-09-03T00:47:47.274Z,59.58
2022-09-03T00:48:47.441Z,59.69
2022-09-03T00:49:47.601Z,59.58
2022-09-03T00:50:47.702Z,59.58
2022-09-03T00:51:47.862Z,59.78
2022-09-03T00:52:47.969Z,59.91
2022-09-03T00:53:48.093Z,59.81
2022-09-03T00:54:48.244Z,60.02
2022-09-03T00:55:48.391Z,59.91
2022-09-03T00:56:48.474Z,59.91
2022-09-03T00:57:48.594Z,60.02
2022-09-03T00:58:48.691Z,60.02
2022-09-03T00:59:48.783Z,60.02
2022-09-03T01:00:48.943Z,60.02
2022-09-03T01:01:49.158Z,60.12
2022-09-03T01:02:49.297Z,60.12
2022-09-03T01:03:49.352Z,60.22
2022-09-03T01:04:49.530Z,60.42
2022-09-03T01:05:49.686Z,60.32
2022-09-03T01:06:49.792Z,60.32
2022-09-03T01:07:49.940Z,60.52
2022-09-03T01:08:50.082Z,60.65
2022-09-03T01:09:50.191Z,60.85
2022-09-03T01:10:50.364Z,60.85
2022-09-03T01:11:50.472Z,61.16
2022-09-03T01:12:50.603Z,60.96
2022-09-03T01:13:50.759Z,60.85
2022-09-03T01:14:50.933Z,60.96
2022-09-03T01:15:51.146Z,60.85
2022-09-03T01:16:51.191Z,60.85
2022-09-03T01:17:51.276Z,60.85
2022-09-03T01:18:51.431Z,60.85
2022-09-03T01:19:51.568Z,60.75
2022-09-03T01:20:51.732Z,60.96
2022-09-03T01:21:51.812Z,60.96
2022-09-03T01:22:51.954Z,60.96
2022-09-03T01:23:52.043Z,60.96
2022-09-03T01:24:52.180Z,60.96
2022-09-03T01:25:52.393Z,61.05
2022-09-03T01:26:52.481Z,61.05
2022-09-03T01:27:52.632Z,61.05
2022-09-03T01:28:52.781Z,61.16
2022-09-03T01:29:52.913Z,61.16
2022-09-03T01:30:53.021Z,61.25
2022-09-03T01:31:53.147Z,61.36
2022-09-03T01:32:53.311Z,61.36
2022-09-03T01:33:53.393Z,61.49
2022-09-03T01:34:53.531Z,61.49
2022-09-03T01:35:53.660Z,61.39
2022-09-03T01:36:53.802Z,61.59
2022-09-03T01:37:54.083Z,61.69
2022-09-03T01:38:54.061Z,61.69
2022-09-03T01:39:54.265Z,61.79
2022-09-03T01:40:54.282Z,61.90
2022-09-03T01:41:54.383Z,61.90
2022-09-03T01:42:54.515Z,61.90
2022-09-03T01:43:54.665Z,61.99
2022-09-03T01:44:54.767Z,62.10
2022-09-03T01:45:54.962Z,61.99
2022-09-03T01:46:55.058Z,61.99
2022-09-03T01:47:55.191Z,62.10
2022-09-03T01:48:55.330Z,62.10
2022-09-03T01:49:55.522Z,62.10
2022-09-03T01:50:55.672Z,62.19
2022-09-03T01:51:57.121Z,62.10
2022-09-03T01:52:55.953Z,62.19
2022-09-03T01:53:56.136Z,62.30
2022-09-03T01:54:57.032Z,62.30
2022-09-03T01:55:57.132Z,62.43
2022-09-03T01:56:56.599Z,62.43
2022-09-03T01:57:56.692Z,62.43
2022-09-03T01:58:56.880Z,62.53
2022-09-03T01:59:56.982Z,62.53
2022-09-03T02:00:57.139Z,62.63
2022-09-03T02:01:57.353Z,62.63
2022-09-03T02:02:57.466Z,62.63
2022-09-03T02:03:57.562Z,62.63
2022-09-03T02:04:57.719Z,62.73
2022-09-03T02:05:57.879Z,62.84
2022-09-03T02:06:58.106Z,62.93
2022-09-03T02:07:58.113Z,62.93
2022-09-03T02:08:58.239Z,63.04
2022-09-03T02:09:58.349Z,63.04
2022-09-03T02:10:58.481Z,63.07
2022-09-03T02:11:58.552Z,63.37
2022-09-03T02:12:58.713Z,63.37
2022-09-03T02:13:58.828Z,63.37
2022-09-03T02:14:58.990Z,63.47
2022-09-03T02:15:59.183Z,63.47
2022-09-03T02:16:59.290Z,63.57
2022-09-03T02:17:59.433Z,63.47
2022-09-03T02:19:00.471Z,63.47
2022-09-03T02:19:59.619Z,63.47
2022-09-03T02:20:59.758Z,63.47
2022-09-03T02:21:59.845Z,63.47
2022-09-03T02:23:00.009Z,63.57
2022-09-03T02:24:00.097Z,63.47
2022-09-03T02:25:00.249Z,63.57
2022-09-03T02:26:00.310Z,63.57
2022-09-03T02:27:00.457Z,63.67
2022-09-03T02:28:00.566Z,63.67
2022-09-03T02:29:00.691Z,63.67
2022-09-03T02:30:00.831Z,63.67
2022-09-03T02:31:01.015Z,63.67
2022-09-03T02:32:01.083Z,63.67
2022-09-03T02:33:01.252Z,63.78
2022-09-03T02:34:01.319Z,63.78
2022-09-03T02:35:01.458Z,63.78
2022-09-03T02:36:01.650Z,63.98
2022-09-03T02:37:01.799Z,63.87
2022-09-03T02:38:01.910Z,63.98
2022-09-03T02:39:02.060Z,64.07
2022-09-03T02:40:02.344Z,64.07
2022-09-03T02:41:02.441Z,64.07
2022-09-03T02:42:02.529Z,64.07
2022-09-03T02:43:02.708Z,64.21
2022-09-03T02:44:02.780Z,64.31
2022-09-03T02:45:02.919Z,64.31
2022-09-03T02:46:03.128Z,64.41
2022-09-03T02:47:03.216Z,64.51
2022-09-03T02:48:03.349Z,64.61
2022-09-03T02:49:03.476Z,64.61
2022-09-03T02:50:03.578Z,64.61
2022-09-03T02:51:13.779Z,64.72
2022-09-03T02:52:04.839Z,64.72
2022-09-03T02:53:04.031Z,64.82
2022-09-03T02:54:04.115Z,64.82
2022-09-03T02:55:04.257Z,64.82
2022-09-03T02:56:04.405Z,64.92
2022-09-03T02:57:04.503Z,64.92
2022-09-03T02:58:04.631Z,64.92
2022-09-03T02:59:04.838Z,65.02
2022-09-03T03:00:04.897Z,65.36
2022-09-03T03:01:05.042Z,65.36
2022-09-03T03:02:05.159Z,65.45
2022-09-03T03:03:05.245Z,65.45
2022-09-03T03:04:05.385Z,65.56
2022-09-03T03:05:05.520Z,65.66
2022-09-03T03:06:05.676Z,65.76
2022-09-03T03:07:05.779Z,65.66
2022-09-03T03:08:05.906Z,65.76
2022-09-03T03:09:06.052Z,65.86
2022-09-03T03:10:06.189Z,65.76
2022-09-03T03:11:06.326Z,66.16
2022-09-03T03:12:06.442Z,65.96
2022-09-03T03:13:06.548Z,66.06
2022-09-03T03:14:06.717Z,65.96
2022-09-03T03:15:06.885Z,66.06
2022-09-03T03:16:07.071Z,65.96
2022-09-03T03:17:07.252Z,66.16
2022-09-03T03:18:07.361Z,66.16
2022-09-03T03:19:07.515Z,66.16
2022-09-03T03:20:07.676Z,66.16
2022-09-03T03:21:07.777Z,66.30
2022-09-03T03:22:07.909Z,66.30
2022-09-03T03:23:08.035Z,66.40
2022-09-03T03:24:08.177Z,66.27
2022-09-03T03:25:08.316Z,66.30
2022-09-03T03:26:08.489Z,66.27
2022-09-03T03:27:08.567Z,66.37
2022-09-03T03:28:08.707Z,66.16
2022-09-03T03:29:08.856Z,66.30
2022-09-03T03:30:08.997Z,66.27
2022-09-03T03:31:09.261Z,66.19
2022-09-03T03:32:09.266Z,66.30
2022-09-03T03:33:09.346Z,66.30
2022-09-03T03:34:09.497Z,66.40
2022-09-03T03:35:09.646Z,66.40
2022-09-03T03:36:09.786Z,66.50
2022-09-03T03:37:09.945Z,66.50
2022-09-03T03:38:10.077Z,66.70
2022-09-03T03:39:11.221Z,66.60
2022-09-03T03:40:10.339Z,66.60
2022-09-03T03:41:10.453Z,66.70
2022-09-03T03:42:10.578Z,66.70
2022-09-03T03:43:10.715Z,66.60
2022-09-03T03:44:10.867Z,66.80
2022-09-03T03:45:10.946Z,66.70
2022-09-03T03:46:11.121Z,66.80
2022-09-03T03:47:11.218Z,66.91
2022-09-03T03:48:11.325Z,66.91
2022-09-03T03:49:11.413Z,66.91
2022-09-03T03:50:11.553Z,67.00
2022-09-03T03:51:11.696Z,67.14
2022-09-03T03:52:11.847Z,67.11
2022-09-03T03:53:11.926Z,67.00
2022-09-03T03:54:12.063Z,67.00
2022-09-03T03:55:13.175Z,67.00
2022-09-03T03:56:12.323Z,67.11
2022-09-03T03:57:12.436Z,67.11
2022-09-03T03:58:12.576Z,67.24
2022-09-03T03:59:12.635Z,67.34
2022-09-03T04:00:12.763Z,67.34
2022-09-03T04:01:12.950Z,67.34
2022-09-03T04:02:13.093Z,67.44
2022-09-03T04:03:13.195Z,67.55
2022-09-03T04:04:13.304Z,67.44
2022-09-03T04:05:13.405Z,67.55
2022-09-03T04:06:13.606Z,67.55
2022-09-03T04:07:13.663Z,67.75
2022-09-03T04:08:13.803Z,67.75
2022-09-03T04:09:13.937Z,67.75
2022-09-03T04:10:14.081Z,67.85
2022-09-03T04:11:14.203Z,67.85
2022-09-03T04:12:14.337Z,67.85
2022-09-03T04:13:14.485Z,67.95
2022-09-03T04:14:14.585Z,67.95
2022-09-03T04:15:14.724Z,67.95
2022-09-03T04:16:14.886Z,68.05
2022-09-03T04:17:14.966Z,68.08
2022-09-03T04:18:15.195Z,68.19
2022-09-03T04:19:15.212Z,68.19
2022-09-03T04:20:15.373Z,68.39
2022-09-03T04:21:15.546Z,68.39
2022-09-03T04:22:15.707Z,68.39
2022-09-03T04:23:15.840Z,68.39
2022-09-03T04:24:15.972Z,68.19
2022-09-03T04:25:16.126Z,68.19
2022-09-03T04:26:16.234Z,68.39
2022-09-03T04:27:16.374Z,68.49
2022-09-03T04:28:16.461Z,68.59
2022-09-03T04:29:16.573Z,68.79
2022-09-03T04:30:16.673Z,69.00
2022-09-03T04:31:16.826Z,68.90
2022-09-03T04:32:16.967Z,68.90
2022-09-03T04:33:17.102Z,69.00
2022-09-03T04:34:17.234Z,69.00
2022-09-03T04:35:17.355Z,69.10
2022-09-03T04:36:17.495Z,69.10
2022-09-03T04:37:17.634Z,69.20
2022-09-03T04:38:19.804Z,69.23
2022-09-03T04:39:17.973Z,69.43
2022-09-03T04:40:18.005Z,69.43
2022-09-03T04:41:18.150Z,69.54
2022-09-03T04:42:18.290Z,69.54
2022-09-03T04:43:18.432Z,69.64
2022-09-03T04:44:18.604Z,69.74
2022-09-03T04:45:18.731Z,69.74
2022-09-03T04:46:18.868Z,69.74
2022-09-03T04:47:18.925Z,69.95
2022-09-03T04:48:19.114Z,69.84
2022-09-03T04:49:19.143Z,70.04
2022-09-03T04:50:19.292Z,69.95
2022-09-03T04:51:19.393Z,70.04
2022-09-03T04:52:19.555Z,69.95
2022-09-03T04:53:19.652Z,70.25
2022-09-03T04:54:19.771Z,69.95
2022-09-03T04:55:19.873Z,69.95
2022-09-03T04:56:20.053Z,69.95
2022-09-03T04:57:20.140Z,69.95
2022-09-03T04:58:20.260Z,69.84
2022-09-03T04:59:20.402Z,69.74
2022-09-03T05:00:21.234Z,69.95
2022-09-03T05:01:20.656Z,69.95
2022-09-03T05:02:20.819Z,69.84
2022-09-03T05:03:20.862Z,69.74
2022-09-03T05:04:20.981Z,69.84
2022-09-03T05:05:21.082Z,69.84
2022-09-03T05:06:21.231Z,69.84
2022-09-03T05:07:21.342Z,69.84
2022-09-03T05:08:21.456Z,69.84
2022-09-03T05:09:21.561Z,69.95
2022-09-03T05:10:21.662Z,69.95
2022-09-03T05:11:21.815Z,69.84
2022-09-03T05:12:21.952Z,69.84
2022-09-03T05:13:22.021Z,69.84
2022-09-03T05:14:22.171Z,69.84
2022-09-03T05:15:22.291Z,69.84
2022-09-03T05:16:22.467Z,69.84
2022-09-03T05:17:22.532Z,69.84
2022-09-03T05:18:22.680Z,69.84
2022-09-03T05:19:22.833Z,69.74
2022-09-03T05:20:22.943Z,69.74
2022-09-03T05:21:23.042Z,69.64
2022-09-03T05:22:23.190Z,69.51
2022-09-03T05:23:23.290Z,69.40
2022-09-03T05:24:23.492Z,69.40
2022-09-03T05:25:23.573Z,69.30
2022-09-03T05:26:23.711Z,69.40
2022-09-03T05:27:23.852Z,69.30
2022-09-03T05:28:24.142Z,69.30
2022-09-03T05:29:24.144Z,69.20
2022-09-03T05:30:24.250Z,69.30
2022-09-03T05:31:24.450Z,69.10
2022-09-03T05:32:24.512Z,69.00
2022-09-03T05:33:24.613Z,68.90
2022-09-03T05:34:24.773Z,68.76
2022-09-03T05:35:27.112Z,68.76
2022-09-03T05:36:26.000Z,68.76
2022-09-03T05:37:25.901Z,68.87
2022-09-03T05:38:26.052Z,68.76
2022-09-03T05:39:25.468Z,68.76
2022-09-03T05:40:25.560Z,68.76
2022-09-03T05:41:25.705Z,68.96
2022-09-03T05:42:25.849Z,68.56
2022-09-03T05:43:25.981Z,68.56
2022-09-03T05:44:26.070Z,68.46
2022-09-03T05:45:26.255Z,68.35
2022-09-03T05:46:26.350Z,68.35
2022-09-03T05:47:26.440Z,68.46
2022-09-03T05:48:27.320Z,68.76
2022-09-03T05:49:26.709Z,68.56
2022-09-03T05:50:27.558Z,68.56
2022-09-03T05:51:26.949Z,68.66
2022-09-03T05:52:27.049Z,68.43
2022-09-03T05:53:27.163Z,68.43
2022-09-03T05:54:27.326Z,68.32
2022-09-03T05:55:27.429Z,68.43
2022-09-03T05:56:27.581Z,68.32
2022-09-03T05:57:29.630Z,68.43
2022-09-03T05:58:28.191Z,68.32
2022-09-03T05:59:28.462Z,68.32
2022-09-03T06:00:28.067Z,68.43
2022-09-03T06:01:28.132Z,68.23
2022-09-03T06:02:28.425Z,68.32
2022-09-03T06:03:28.609Z,68.23
2022-09-03T06:04:28.590Z,68.12
2022-09-03T06:05:28.665Z,68.02
2022-09-03T06:06:28.830Z,68.09
2022-09-03T06:07:28.928Z,67.99
2022-09-03T06:08:29.040Z,67.99
2022-09-03T06:09:29.150Z,67.89
2022-09-03T06:10:34.519Z,67.79
2022-09-03T06:11:30.419Z,67.68
2022-09-03T06:12:29.561Z,67.68
2022-09-03T06:13:29.667Z,67.55
2022-09-03T06:14:29.838Z,67.65
2022-09-03T06:15:29.928Z,67.55
2022-09-03T06:16:32.184Z,67.35
2022-09-03T06:17:30.159Z,67.45
2022-09-03T06:18:30.320Z,67.35
2022-09-03T06:19:30.456Z,67.14
2022-09-03T06:20:35.014Z,67.14
2022-09-03T06:21:31.668Z,66.94
2022-09-03T06:22:30.808Z,67.05
2022-09-03T06:23:30.922Z,67.05
2022-09-03T06:24:31.070Z,67.11
2022-09-03T06:25:31.178Z,66.91
2022-09-03T06:26:31.289Z,66.61
2022-09-03T06:27:31.419Z,66.71
2022-09-03T06:28:31.506Z,66.61
2022-09-03T06:29:31.649Z,66.61
2022-09-03T06:30:31.794Z,66.61
2022-09-03T06:31:31.947Z,66.50
2022-09-03T06:32:32.020Z,66.38
2022-09-03T06:33:32.097Z,66.27
2022-09-03T06:34:32.265Z,66.27
2022-09-03T06:35:35.687Z,66.07
2022-09-03T06:36:33.491Z,65.97
2022-09-03T06:37:32.628Z,65.97
2022-09-03T06:38:32.783Z,65.97
2022-09-03T06:39:32.940Z,65.87
2022-09-03T06:40:33.018Z,65.84
2022-09-03T06:41:33.144Z,66.04
2022-09-03T06:42:33.227Z,65.73
2022-09-03T06:43:33.348Z,65.64
2022-09-03T06:44:33.469Z,65.64
2022-09-03T06:45:33.589Z,65.53
2022-09-03T06:46:33.757Z,65.73
2022-09-03T06:47:33.829Z,65.50
2022-09-03T06:48:34.012Z,65.30
2022-09-03T06:49:34.109Z,65.10
2022-09-03T06:50:34.843Z,65.20
2022-09-03T06:51:34.369Z,65.20
2022-09-03T06:52:34.547Z,64.79
2022-09-03T06:53:34.642Z,64.87
2022-09-03T06:54:34.777Z,64.76
2022-09-03T06:55:34.847Z,64.46
2022-09-03T06:56:39.623Z,64.56
2022-09-03T06:57:36.129Z,64.36
2022-09-03T06:58:35.280Z,64.46
2022-09-03T06:59:35.411Z,64.46
2022-09-03T07:00:35.555Z,64.33
2022-09-03T07:01:35.811Z,64.33
2022-09-03T07:02:35.771Z,64.13
2022-09-03T07:03:35.876Z,63.82
2022-09-03T07:04:36.009Z,64.03
2022-09-03T07:05:36.097Z,63.82
2022-09-03T07:06:36.250Z,63.73
2022-09-03T07:07:36.329Z,63.59
2022-09-03T07:08:36.487Z,63.79
2022-09-03T07:09:36.610Z,63.59
2022-09-03T07:10:36.717Z,63.49
2022-09-03T07:11:36.899Z,63.19
2022-09-03T07:12:37.006Z,63.29
2022-09-03T07:13:37.125Z,63.29
2022-09-03T07:14:37.210Z,63.16
2022-09-03T07:15:37.367Z,63.16
2022-09-03T07:16:37.522Z,63.46
2022-09-03T07:17:37.585Z,62.63
2022-09-03T07:18:37.692Z,62.43
2022-09-03T07:19:37.839Z,62.22
2022-09-03T07:20:37.947Z,62.02
2022-09-03T07:21:38.088Z,62.02
2022-09-03T07:22:38.159Z,61.92
2022-09-03T07:23:38.308Z,62.19
2022-09-03T07:24:38.427Z,61.99
2022-09-03T07:25:38.535Z,61.59
2022-09-03T07:26:38.674Z,61.79
2022-09-03T07:27:38.788Z,61.49
2022-09-03T07:28:38.888Z,61.36
2022-09-03T07:29:38.978Z,61.25
2022-09-03T07:30:39.081Z,61.25
2022-09-03T07:31:39.287Z,61.16
2022-09-03T07:32:39.336Z,61.05
2022-09-03T07:33:39.499Z,61.46
2022-09-03T07:34:39.575Z,61.23
2022-09-03T07:35:39.736Z,61.03
2022-09-03T07:36:39.864Z,60.72
2022-09-03T07:37:39.975Z,60.22
2022-09-03T07:38:40.076Z,60.39
2022-09-03T07:39:40.278Z,60.49
2022-09-03T07:40:40.347Z,60.39
2022-09-03T07:41:40.499Z,60.69
2022-09-03T07:42:40.615Z,59.66
2022-09-03T07:43:40.714Z,59.46
2022-09-03T07:44:40.807Z,59.46
2022-09-03T07:45:40.979Z,59.26
2022-09-03T07:46:41.101Z,59.46
2022-09-03T07:47:41.219Z,59.36
2022-09-03T07:48:41.306Z,59.16
2022-09-03T07:49:41.460Z,58.93
2022-09-03T07:50:41.572Z,58.73
2022-09-03T07:51:41.718Z,58.62
2022-09-03T07:52:41.817Z,58.33
2022-09-03T07:53:41.969Z,58.62
2022-09-03T07:54:42.057Z,58.50
2022-09-03T07:55:42.195Z,58.20
2022-09-03T07:56:42.287Z,58.00
2022-09-03T07:57:42.420Z,58.07
2022-09-03T07:58:42.508Z,57.77
2022-09-03T07:59:42.656Z,57.46
2022-09-03T08:00:42.797Z,57.24
2022-09-03T08:01:42.909Z,57.04
2022-09-03T08:02:46.099Z,56.63
2022-09-03T08:03:43.256Z,56.81
2022-09-03T08:04:43.277Z,56.41
2022-09-03T08:05:43.369Z,56.28
2022-09-03T08:06:43.489Z,55.88
2022-09-03T08:07:43.616Z,55.45
2022-09-03T08:08:43.716Z,55.35
2022-09-03T08:09:43.839Z,55.13
2022-09-03T08:10:43.975Z,55.43
2022-09-03T08:11:44.076Z,54.52
2022-09-03T08:12:44.186Z,54.60
2022-09-03T08:13:44.288Z,54.39
2022-09-03T08:14:44.377Z,53.77
2022-09-03T08:15:44.600Z,53.87
2022-09-03T08:16:44.710Z,53.14
2022-09-03T08:17:44.837Z,52.94
2022-09-03T08:18:44.927Z,53.02
2022-09-03T08:19:45.070Z,52.82
2022-09-03T08:20:45.159Z,52.49
2022-09-03T08:21:45.346Z,52.00
2022-09-03T08:22:45.489Z,51.89
2022-09-03T08:23:45.580Z,51.87
2022-09-03T08:24:45.677Z,51.47
2022-09-03T08:25:45.893Z,50.84
2022-09-03T08:26:51.305Z,50.54
2022-09-03T08:27:47.058Z,50.62
2022-09-03T08:28:46.159Z,50.22
2022-09-03T08:29:46.301Z,50.20
2022-09-03T08:30:48.337Z,49.80
2022-09-03T08:31:46.589Z,49.50
2022-09-03T08:32:46.707Z,49.50
2022-09-03T08:33:46.745Z,49.68
2022-09-03T08:34:46.877Z,49.27
2022-09-03T08:35:46.996Z,48.68
2022-09-03T08:36:47.244Z,48.97
2022-09-03T08:37:47.210Z,48.68
2022-09-03T08:38:47.330Z,48.55
2022-09-03T08:39:47.521Z,48.55
2022-09-03T08:40:47.580Z,48.05
2022-09-03T08:41:47.691Z,48.33
2022-09-03T08:42:47.842Z,48.03
2022-09-03T08:43:47.936Z,47.91
2022-09-03T08:44:48.046Z,47.81
2022-09-03T08:45:48.152Z,47.21
2022-09-03T08:46:48.364Z,47.11
2022-09-03T08:47:48.398Z,47.29
2022-09-03T08:48:48.499Z,47.09
2022-09-03T08:49:48.640Z,46.72
2022-09-03T08:50:48.768Z,46.69
2022-09-03T08:51:49.015Z,46.67
2022-09-03T08:52:49.039Z,46.45
2022-09-03T08:53:49.117Z,45.63
2022-09-03T08:54:49.242Z,45.14
2022-09-03T08:55:49.320Z,44.85
2022-09-03T08:56:49.440Z,45.45
2022-09-03T08:57:49.593Z,45.06
2022-09-03T08:58:49.698Z,45.15
2022-09-03T08:59:49.862Z,44.93
2022-09-03T09:00:49.942Z,45.03
2022-09-03T09:01:50.174Z,44.81
2022-09-03T09:02:50.288Z,44.22
2022-09-03T09:03:50.312Z,44.71
2022-09-03T09:04:50.472Z,44.00
2022-09-03T09:05:50.562Z,43.60
2022-09-03T09:06:50.702Z,43.38
2022-09-03T09:07:50.840Z,43.26
2022-09-03T09:08:50.992Z,42.85
2022-09-03T09:09:51.116Z,42.74
2022-09-03T09:10:51.211Z,42.43
2022-09-03T09:11:51.309Z,42.23
2022-09-03T09:12:51.441Z,41.93
2022-09-03T09:13:51.582Z,41.81
2022-09-03T09:14:51.722Z,41.61
2022-09-03T09:15:51.945Z,41.61
2022-09-03T09:16:52.010Z,41.71
2022-09-03T09:17:52.164Z,41.69
2022-09-03T09:18:52.264Z,41.18
2022-09-03T09:19:52.401Z,40.86
2022-09-03T09:20:52.541Z,40.37
2022-09-03T09:21:52.683Z,40.56
2022-09-03T09:22:52.823Z,40.15
2022-09-03T09:23:53.033Z,40.05
2022-09-03T09:24:53.123Z,39.95
2022-09-03T09:25:53.252Z,40.07
2022-09-03T09:26:53.336Z,39.95
2022-09-03T09:27:53.491Z,39.65
2022-09-03T09:28:53.595Z,40.05
2022-09-03T09:29:53.740Z,39.93
2022-09-03T09:30:53.903Z,39.43
2022-09-03T09:31:53.971Z,39.34
2022-09-03T09:32:54.103Z,39.03
2022-09-03T09:33:54.257Z,39.03
2022-09-03T09:34:54.364Z,39.50
2022-09-03T09:35:54.632Z,38.71
2022-09-03T09:36:54.604Z,39.20
2022-09-03T09:37:54.765Z,38.51
2022-09-03T09:38:54.925Z,38.51
2022-09-03T09:39:55.103Z,38.39
2022-09-03T09:40:55.844Z,38.28
2022-09-03T09:41:55.266Z,37.66
2022-09-03T09:42:55.395Z,37.24
2022-09-03T09:43:55.484Z,36.94
2022-09-03T09:44:55.625Z,36.65
2022-09-03T09:45:55.796Z,36.82
2022-09-03T09:46:55.934Z,36.84
2022-09-03T09:47:56.040Z,37.15
2022-09-03T09:48:56.132Z,37.26
2022-09-03T09:49:56.278Z,37.37
2022-09-03T09:50:56.465Z,37.57
2022-09-03T09:51:56.559Z,37.15
2022-09-03T09:52:59.166Z,37.04
2022-09-03T09:53:56.785Z,36.94
2022-09-03T09:54:56.897Z,36.65
2022-09-03T09:55:57.026Z,36.65
2022-09-03T09:56:57.216Z,36.63
2022-09-03T09:57:57.241Z,36.22
2022-09-03T09:58:57.345Z,35.82
2022-09-03T09:59:57.528Z,35.82
2022-09-03T10:00:57.648Z,36.22
2022-09-03T10:01:57.792Z,36.32
2022-09-03T10:02:58.019Z,36.00
2022-09-03T10:03:58.005Z,35.18
2022-09-03T10:04:58.107Z,34.97
2022-09-03T10:05:58.198Z,34.47
2022-09-03T10:06:58.386Z,34.38
2022-09-03T10:07:58.480Z,34.89
2022-09-03T10:08:58.588Z,35.10
2022-09-03T10:09:58.696Z,35.30
2022-09-03T10:10:58.818Z,35.10
2022-09-03T10:11:59.008Z,35.31
2022-09-03T10:12:59.117Z,35.00
2022-09-03T10:13:59.227Z,35.16
2022-09-03T10:14:59.339Z,34.85
2022-09-03T10:15:59.471Z,34.34
2022-09-03T10:16:59.600Z,33.97
2022-09-03T10:17:59.707Z,34.16
2022-09-03T10:18:59.787Z,34.16
2022-09-03T10:19:59.969Z,33.97
2022-09-03T10:21:00.081Z,33.65
2022-09-03T10:22:00.245Z,33.54
2022-09-03T10:23:00.329Z,33.34
2022-09-03T10:24:03.716Z,33.33
2022-09-03T10:25:01.564Z,33.04
2022-09-03T10:26:00.665Z,32.94
2022-09-03T10:27:00.815Z,33.65
2022-09-03T10:28:00.899Z,34.05
2022-09-03T10:29:01.041Z,33.74
2022-09-03T10:30:01.161Z,33.56
2022-09-03T10:31:01.336Z,33.87
2022-09-03T10:32:01.420Z,34.56
2022-09-03T10:33:01.548Z,34.34
2022-09-03T10:34:01.651Z,34.03
2022-09-03T10:35:01.762Z,33.84
2022-09-03T10:36:01.933Z,33.43
2022-09-03T10:37:02.030Z,33.33
2022-09-03T10:38:02.150Z,33.00
2022-09-03T10:39:02.270Z,33.31
2022-09-03T10:40:02.450Z,33.43
2022-09-03T10:41:02.501Z,33.43
2022-09-03T10:42:02.721Z,33.64
2022-09-03T10:43:02.820Z,33.84
2022-09-03T10:44:02.909Z,33.94
2022-09-03T10:45:03.029Z,34.42
2022-09-03T10:46:03.286Z,33.22
2022-09-03T10:47:03.274Z,33.04
2022-09-03T10:48:03.381Z,33.04
2022-09-03T10:49:03.481Z,33.02
2022-09-03T10:50:03.611Z,32.50
2022-09-03T10:51:03.722Z,32.29
2022-09-03T10:52:03.873Z,32.81
2022-09-03T10:53:04.202Z,33.02
2022-09-03T10:54:04.127Z,33.74
2022-09-03T10:55:04.251Z,33.23
2022-09-03T10:56:04.403Z,33.31
2022-09-03T10:57:04.503Z,32.61
2022-09-03T10:58:04.630Z,33.12
2022-09-03T10:59:04.744Z,33.20
2022-09-03T11:00:04.911Z,33.10
2022-09-03T11:01:05.050Z,33.10
2022-09-03T11:02:05.191Z,32.78
2022-09-03T11:03:05.277Z,32.19
2022-09-03T11:04:05.372Z,32.06
2022-09-03T11:05:05.473Z,32.27
2022-09-03T11:06:07.543Z,32.37
2022-09-03T11:07:05.712Z,31.88
2022-09-03T11:08:05.852Z,31.99
2022-09-03T11:09:06.822Z,32.20
2022-09-03T11:10:06.072Z,31.78
2022-09-03T11:11:06.186Z,32.50
2022-09-03T11:12:06.314Z,32.40
2022-09-03T11:13:06.446Z,32.29
2022-09-03T11:14:06.552Z,31.65
2022-09-03T11:15:06.653Z,31.57
2022-09-03T11:16:06.826Z,31.65
2022-09-03T11:17:08.845Z,31.48
2022-09-03T11:18:07.044Z,32.19
2022-09-03T11:19:07.158Z,32.50
2022-09-03T11:20:07.294Z,32.50
2022-09-03T11:21:12.011Z,32.70
2022-09-03T11:22:07.553Z,32.39
2022-09-03T11:23:07.685Z,32.50
2022-09-03T11:24:07.794Z,32.68
2022-09-03T11:25:07.902Z,32.58
2022-09-03T11:26:08.013Z,32.71
2022-09-03T11:27:08.105Z,33.09
2022-09-03T11:28:08.266Z,31.99
2022-09-03T11:29:08.394Z,32.29
2022-09-03T11:30:08.542Z,32.46
2022-09-03T11:31:08.680Z,31.74
2022-09-03T11:32:08.774Z,31.26
2022-09-03T11:33:08.915Z,31.13
2022-09-03T11:34:09.035Z,30.71
2022-09-03T11:35:09.155Z,30.11
2022-09-03T11:36:09.283Z,29.71
2022-09-03T11:37:09.396Z,29.74
2022-09-03T11:38:09.508Z,30.55
2022-09-03T11:39:09.655Z,30.94
2022-09-03T11:40:09.756Z,30.52
2022-09-03T11:41:09.909Z,30.15
2022-09-03T11:42:10.007Z,30.45
2022-09-03T11:43:10.134Z,30.35
2022-09-03T11:44:10.288Z,30.54
2022-09-03T11:45:10.408Z,30.11
2022-09-03T11:46:10.572Z,29.89
2022-09-03T11:47:10.661Z,28.39
2022-09-03T11:48:10.768Z,28.36
2022-09-03T11:49:10.888Z,28.08
2022-09-03T11:50:10.995Z,27.58
2022-09-03T11:51:11.167Z,28.38
2022-09-03T11:52:11.276Z,27.98
2022-09-03T11:53:11.409Z,28.08
2022-09-03T11:54:11.544Z,28.38
2022-09-03T11:55:11.664Z,27.75
2022-09-03T11:56:11.769Z,27.72
2022-09-03T11:57:11.898Z,27.54
2022-09-03T11:58:11.986Z,27.87
2022-09-03T11:59:12.137Z,27.67
2022-09-03T12:00:14.187Z,28.18
2022-09-03T12:01:12.368Z,27.78
2022-09-03T12:02:12.516Z,27.78
2022-09-03T12:03:12.633Z,28.50
2022-09-03T12:04:12.751Z,28.55
2022-09-03T12:05:12.888Z,27.66
2022-09-03T12:06:13.715Z,28.26
2022-09-03T12:07:13.150Z,28.36
2022-09-03T12:08:13.216Z,27.87
2022-09-03T12:09:13.385Z,28.88
2022-09-03T12:10:13.498Z,28.58
2022-09-03T12:11:13.641Z,28.39
2022-09-03T12:12:13.738Z,28.85
2022-09-03T12:13:13.837Z,28.59
2022-09-03T12:14:14.163Z,29.16
2022-09-03T12:15:21.206Z,28.78
2022-09-03T12:16:14.263Z,28.47
2022-09-03T12:17:14.323Z,28.17
2022-09-03T12:18:14.434Z,28.38
2022-09-03T12:19:14.553Z,28.05
2022-09-03T12:20:14.679Z,27.43
2022-09-03T12:21:14.795Z,26.84
2022-09-03T12:22:14.906Z,27.06
2022-09-03T12:23:15.020Z,27.45
2022-09-03T12:24:15.128Z,27.46
2022-09-03T12:25:15.289Z,27.57
2022-09-03T12:26:15.386Z,28.18
2022-09-03T12:27:15.503Z,27.96
2022-09-03T12:28:15.655Z,28.89
2022-09-03T12:29:15.795Z,28.79
2022-09-03T12:30:15.916Z,28.99
2022-09-03T12:31:16.079Z,28.68
2022-09-03T12:32:16.135Z,28.07
2022-09-03T12:33:16.331Z,29.06
2022-09-03T12:34:16.416Z,28.89
2022-09-03T12:35:58.367Z,29.06
2022-09-03T12:36:17.676Z,30.21
2022-09-03T12:37:16.987Z,30.54
2022-09-03T12:38:18.757Z,30.71
2022-09-03T12:39:17.160Z,29.78
2022-09-03T12:40:17.188Z,29.79
2022-09-03T12:41:27.000Z,29.91
2022-09-03T12:42:18.405Z,29.61
2022-09-03T12:44:18.656Z,30.81
2022-09-03T12:45:17.828Z,30.42
2022-09-03T12:46:18.200Z,30.94
2022-09-03T12:47:36.659Z,31.75
2022-09-03T12:48:19.205Z,31.95
2022-09-03T12:49:33.654Z,32.55
2022-09-03T12:50:20.081Z,32.55
2022-09-03T12:52:19.726Z,33.48
2022-09-03T12:53:18.883Z,33.05
2022-09-03T12:54:18.980Z,32.86
2022-09-03T12:55:19.152Z,33.18
2022-09-03T12:56:19.267Z,33.38